x

West Dixon Entrance (46205) Wave Buoy

7:00am - Wed 27th Aug 2014 All times are PDT. -7 hours from GMT.

  • Sig Wave height 6.9ft
  • Peak Period 10s
  • Wind
    11mph, 16mph gusts
  • Sea Temp 62°f
  • Air Temp 60°f
  • Sea Pressure 1019.4mb
  • West Dixon Entrance
  • West Dixon Entrance

More Historic Weather Station data

Upgrade to MSW Pro to gain access to the past 30 days of data for over 8000 Wavebouys and Weather Stations around the globe.

Join Pro

Comparision Forecast

View Surf forecast
   
Wed 08/27 7:00am 7ft 10s 11 16 mph 1019.4mb 62f 60f
6:00am 6ft 10s 11 13 mph 1019.1mb 62f 60f
5:00am 6ft 11s 11 13 mph 1019.1mb 62f 60f
4:00am 5ft 10s 9 11 mph 1018.9mb 62f 59f
3:00am 5ft 10s 11 13 mph 1018.8mb 62f 59f
2:00am 5ft 8s 9 11 mph 1018.9mb 62f 59f
1:00am 5ft 8s 9 13 mph 1018.8mb 62f 60f
12:00am 5ft 8s 9 11 mph 1018.8mb 62f 60f
Tue 08/26 11:00pm 5ft 9s 9 13 mph 1018.8mb 62f 60f
10:00pm 5ft 9s 9 11 mph 1018.7mb 62f 60f
9:00pm 5ft 9s 9
mph
1018.7mb 62f 60f
8:00pm 5ft 9s 9 11 mph 1018.7mb 62f 60f
7:00pm 5ft 8s 9 11 mph 1018.7mb 62f 60f
6:00pm 5ft 8s 9 11 mph 1018.4mb 62f 60f
5:00pm 5ft 9s 9 11 mph 1018.5mb 62f 60f
4:00pm 5ft 8s 9 13 mph 1018.6mb 62f 60f
3:00pm 5ft 8s 11 13 mph 1018.8mb 62f 60f
2:00pm 5ft 8s 11 13 mph 1018.7mb 62f 60f
1:00pm 5ft 8s 11 13 mph 1018.5mb 62f 60f
12:00pm 5ft 8s 16 18 mph 1018.1mb 62f 60f
11:00am 5ft 8s 16 18 mph 1017.8mb 62f 60f
10:00am 4.5ft 10s 13 18 mph 1017.6mb 62f 60f
9:00am 5ft 10s 11 16 mph 1017.3mb 62f 60f
8:00am 4.5ft 9s 16 18 mph 1016.9mb 62f 60f
7:00am 4.5ft 10s 11 13 mph 1016.6mb 62f 60f
6:00am 5ft 9s 13 16 mph 1016.4mb 62f 60f
5:00am 5ft 8s 11 13 mph 1016.3mb 62f 60f
4:00am 5ft 8s 11 13 mph 1016.2mb 62f 60f
3:00am 5.5ft 8s 13 16 mph 1016.1mb 62f 60f
2:00am 6ft 8s 11 13 mph 1016.1mb 62f 60f
1:00am 6ft 8s 9 13 mph 1015.9mb 62f 60f
12:00am 6ft 8s 9 11 mph 1016.1mb 62f 60f
Mon 08/25 11:00pm 6ft 8s 9 11 mph 1016mb 62f 60f
10:00pm 6.5ft 8s 9 11 mph 1016.2mb 62f 61f
9:00pm 6ft 9s 9 11 mph 1016.1mb 62f 60f
8:00pm 6ft 8s 9 11 mph 1015.7mb 62f 60f
7:00pm 6ft 9s 7 11 mph 1016.1mb 62f 60f
6:00pm 6ft 9s 11 13 mph 1015.8mb 62f 61f
5:00pm 5.5ft 9s 11 13 mph 1015.6mb 62f 61f
4:00pm 5.5ft 9s 11 13 mph 1015.4mb 62f 61f
3:00pm 5.5ft 10s 13 16 mph 1015.2mb 62f 61f
2:00pm 6ft 8s 13 16 mph 1015mb 62f 61f
1:00pm 6ft 9s 13
mph
1015mb 62f 61f
12:00pm 6.5ft 9s 11 16 mph 1015mb 62f 61f
11:00am 6ft 8s 11 13 mph 1014.9mb 62f 61f
10:00am 7ft 8s 9 11 mph 1014.7mb 62f 60f
9:00am 7ft 8s 11 16 mph 1014.9mb 62f 61f
8:00am 7.5ft 8s 11 13 mph 1014.8mb 62f 60f
7:00am 7ft 7s 13 16 mph 1014.5mb 62f 60f
6:00am 6ft 8s 13 18 mph 1014.3mb 62f 60f
5:00am 6ft 8s 13 16 mph 1014.1mb 62f 61f
4:00am 5.5ft 7s 13 16 mph 1014mb 62f 61f
3:00am 5.5ft 8s 16 18 mph 1014mb 62f 61f
2:00am 5.5ft 7s 13 16 mph 1014mb 62f 61f
1:00am 5.5ft 7s 13 18 mph 1014.2mb 62f 61f
12:00am 5.5ft 7s 13 16 mph 1014.3mb 62f 61f
Sun 08/24 11:00pm 6ft 8s 13 16 mph 1014.4mb 62f 61f
10:00pm 6ft 7s 13 16 mph 1014.5mb 62f 61f
9:00pm 6ft 7s 16 20 mph 1014.6mb 62f 62f
8:00pm 5ft 6s 18 25 mph 1014.6mb 62f 62f
7:00pm 4.5ft 5s 18 20 mph 1014.6mb 62f 62f
6:00pm 5ft 6s 18 22 mph 1015mb 62f 62f
5:00pm 4.5ft 4s 18 20 mph 1015.3mb 62f 61f
4:00pm 4.5ft 5s 18 22 mph 1015.8mb 62f 61f
3:00pm 4ft 7s 25 29 mph 1016.3mb 62f 60f
2:00pm 3.5ft 18s 22 27 mph 1017.2mb 62f 58f
1:00pm 3.5ft 7s 20 22 mph 1018.5mb 62f 58f
12:00pm 3.5ft 8s 16 18 mph 1019.5mb 62f 57f
11:00am 4ft 8s 7 9 mph 1020.4mb 62f 57f
10:00am 4ft 8s 11 13 mph 1020.3mb 62f 59f
9:00am 4.5ft 7s 9
mph
1021.1mb 62f 60f
8:00am 4ft 8s 7 9 mph 1021.5mb 62f 60f
7:00am 4ft 7s 7 9 mph 1021.5mb 62f 60f
6:00am 3.5ft 7s 7 9 mph 1021.6mb 62f 60f
5:00am 4.5ft 7s 9 11 mph 1021.8mb 62f 60f
4:00am 4ft 7s 13 16 mph 1022.4mb 62f 60f
3:00am 4ft 7s 13 16 mph 1022.2mb 62f 60f
2:00am 4ft 5s 13 16 mph 1022.1mb 62f 60f
1:00am 4.5ft 7s 13 16 mph 1022.2mb 62f 60f
12:00am 4ft 8s 13 18 mph 1022.5mb 62f 60f
Sat 08/23 11:00pm 4ft 8s 16 18 mph 1022.4mb 62f 60f
10:00pm 4ft 8s 16 18 mph 1022.4mb 63f 60f
9:00pm 3.5ft 8s 16 18 mph 1022.3mb 62f 60f
8:00pm 3.5ft 8s 16 18 mph 1022.5mb 62f 60f
7:00pm 3.5ft 7s 16 18 mph 1022.5mb 62f 61f
6:00pm 3ft 7s 16 18 mph 1022.2mb 62f 60f
5:00pm 2.5ft 8s 16 18 mph 1022.2mb 63f 60f
4:00pm 2.5ft 14s 13 16 mph 1022mb 63f 60f